• Join FlightAware (Why Join?)
  • Login
  • US Flag 
04:58AM EDT


 

Airport Tracker/Info


-or-


 

Live Flight TrackerFlight Track Log ✈ EJA396 ✈ 23-Jun-2013 ✈ KHOU - TQPF / AXA

Flight Track Log - Related Links

Times and Time Zones

All times are in EDT time to prevent confusion due to time zone crossing. See the EJA396 flight status page for this flight to view local times or setup timezone preferences in your user account.

Time Position Orientation Groundspeed Altitude Reporting Facility
EDT Latitude Longitude Course Direction KTS MPH feet Rate Location/Type
08:21AM 29.6358 -95.2697 142° Southeast 141 162 700  Level Houston Center
08:21AM 29.6172 -95.2528 142° Southeast 201 231 1,700 3,540 Climbing Houston Center
08:22AM 29.5847 -95.1967 124° Southeast 221 254 6,200 3,780 Climbing Houston Center
08:23AM 29.5953 -95.1281 80° East 230 265 9,500 2,940 Climbing Houston Center
08:25AM 29.6147 -95.0161 79° East 252 290 13,600 2,640 Climbing Houston Center
08:26AM 29.6289 -94.9272 80° East 276 318 16,200 2,160 Climbing Houston Center
08:27AM 29.6447 -94.8267 80° East 315 362 18,100 1,860 Climbing Houston Center
08:28AM 29.6614 -94.7186 80° East 341 392 20,100 1,920 Climbing Houston Center
08:29AM 29.6794 -94.6069 79° East 354 407 22,100 2,100 Climbing Houston Center
08:30AM 29.7011 -94.4678 80° East 369 425 24,500 2,100 Climbing Houston Center
08:31AM 29.7189 -94.3497 80° East 376 433 26,500 1,920 Climbing Houston Center
08:32AM 29.7083 -94.2275 96° East 386 444 28,500 1,860 Climbing Houston Center
08:33AM 29.6942 -94.1042 98° East 389 448 30,400 1,860 Climbing Houston Center
08:34AM 29.6853 -93.9847 95° East 381 438 32,400 1,680 Climbing Houston Center
08:35AM 29.6847 -93.8667 90° East 375 432 33,900 1,260 Climbing Houston Center
08:36AM 29.6836 -93.7456 91° East 378 435 35,100 1,200 Climbing Houston Center
08:37AM 29.6822 -93.6192 91° East 392 451 36,400 1,380 Climbing Houston Center
08:38AM 29.6800 -93.4725 91° East 386 444 38,000 1,320 Climbing Houston Center
08:39AM 29.6786 -93.3528 91° East 379 436 39,200 1,080 Climbing Houston Center
08:40AM 29.6769 -93.2367 91° East 368 423 40,300 840 Climbing Houston Center
08:41AM 29.6656 -93.1219 96° East 364 419 41,000 300 Climbing Houston Center
08:42AM 29.6458 -93.0022 101° East 379 436 41,000  Level Houston Center
08:43AM 29.6256 -92.8772 101° East 396 456 41,000  Level Houston Center
08:44AM 29.6042 -92.7439 100° East 419 482 41,000  Level Houston Center
08:45AM 29.5819 -92.6067 101° East 434 499 41,000  Level Houston Center
08:46AM 29.5592 -92.4669 101° East 445 512 41,000  Level Houston Center
08:47AM 29.5311 -92.2936 100° East 461 531 41,000  Level Houston Center
08:48AM 29.5069 -92.1483 101° East 464 534 41,000  Level Houston Center
08:49AM 29.4831 -92.0017 101° East 468 539 41,000  Level Houston Center
08:50AM 29.4569 -91.8556 102° East 469 540 41,000  Level Houston Center
08:51AM 29.4317 -91.7017 101° East 467 537 41,000  Level Houston Center
08:52AM 29.4069 -91.5558 101° East 467 537 41,000  Level Houston Center
08:53AM 29.3817 -91.4114 101° East 464 534 41,000  Level Houston Center
08:54AM 29.3564 -91.2661 101° East 466 536 41,000  Level Houston Center
08:55AM 29.3308 -91.1239 102° East 458 527 41,000  Level Houston Center
08:56AM 29.3067 -90.9825 101° East 456 525 41,000  Level Houston Center
08:57AM 29.2817 -90.8433 102° East 451 519 41,000  Level Houston Center
08:58AM 29.2581 -90.7050 101° East 445 512 41,000  Level Houston Center
08:59AM 29.2281 -90.5383 102° East 447 514 41,000  Level Houston Center
09:00AM 29.2025 -90.4019 102° East 442 509 41,000  Level Houston Center
09:01AM 29.1769 -90.2633 102° East 445 512 41,000  Level Houston Center
09:02AM 29.1528 -90.1272 101° East 442 509 41,000  Level Houston Center
09:03AM 29.1272 -89.9903 102° East 442 509 41,000  Level Houston Center
09:04AM 29.1011 -89.8528 102° East 443 510 41,000  Level Houston Center
09:05AM 29.0758 -89.7158 102° East 443 510 41,000  Level Houston Center
09:06AM 29.0503 -89.5803 102° East 442 509 41,000  Level Houston Center
09:07AM 29.0250 -89.4411 102° East 444 511 41,000  Level Houston Center
09:09AM 28.9942 -89.2781 102° East 440 506 41,000  Level Houston Center
09:10AM 28.9681 -89.1417 102° East 442 509 41,000  Level Houston Center
09:11AM 28.9419 -89.0056 102° East 439 505 41,000  Level Houston Center
09:12AM 28.9150 -88.8700 103° East 439 505 41,000  Level Houston Center
09:13AM 28.8894 -88.7347 102° East 437 503 41,000  Level Houston Center
09:14AM 28.8556 -88.6028 106° East 436 502 41,000  Level Houston Center
09:15AM 28.8189 -88.4703 107° East 438 504 41,000  Level Houston Center
09:16AM 28.7822 -88.3389 108° East 436 502 41,000  Level Houston Center
09:17AM 28.7444 -88.2056 108° East 441 507 41,000  Level Houston Center
09:18AM 28.7069 -88.0675 107° East 441 507 41,000  Level Houston Center
09:19AM 28.6614 -87.9083 108° East 442 509 41,000  Level Houston Center
09:20AM 28.6242 -87.7739 107° East 445 512 41,000  Level Houston Center
09:21AM 28.5858 -87.6397 108° East 447 514 41,000  Level Houston Center
09:22AM 28.5478 -87.5064 108° East 445 512 41,000  Level Houston Center
09:23AM 28.5086 -87.3706 108° East 450 518 41,000 -60 Level Houston Center
09:24AM 28.4706 -87.2394 108° East 443 510 40,900 240 Descending Houston Center
09:25AM 28.4336 -87.1072 108° East 439 505 41,600 780 Climbing Houston Center
09:26AM 28.3972 -86.9819 108° East 422 486 42,600 660 Climbing Houston Center
09:27AM 28.3544 -86.8383 109° East 422 486 43,000 180 Climbing Jacksonville Center
09:28AM 28.3167 -86.7097 108° East 412 474 43,000  Level Jacksonville Center
09:29AM 28.2844 -86.5931 107° East 411 473 43,000 -60 Level Jacksonville Center
09:30AM 28.2425 -86.4572 109° East 425 489 42,900  Descending Jacksonville Center
09:31AM 28.2042 -86.3286 109° East 425 489 43,000  Climbing Jacksonville Center
09:32AM 28.1639 -86.1956 109° East 438 504 43,000  Level Jacksonville Center
09:33AM 28.1275 -86.0694 108° East 432 497 43,000  Level Jacksonville Center
09:34AM 28.0886 -85.9461 110° East 432 497 43,000  Level Jacksonville Center
09:35AM 28.0519 -85.8156 108° East 426 490 43,000  Level Jacksonville Center
09:37AM 27.9625 -85.5125 108° East 433 498 43,000  Level Miami Center
09:38AM 27.9181 -85.3850 112° Southeast 430 495 43,000  Level Miami Center
09:39AM 27.8772 -85.2647 111° Southeast 425 489 43,000  Level Miami Center
09:40AM 27.8300 -85.1439 114° Southeast 425 489 43,000  Level Miami Center
09:41AM 27.7808 -85.0208 114° Southeast 420 483 43,000  Level Miami Center
09:42AM 27.7278 -84.8883 114° Southeast 425 489 43,000  Level Miami Center
09:43AM 27.6783 -84.7653 114° Southeast 413 475 43,000  Level Miami Center
09:44AM 27.6308 -84.6450 114° Southeast 419 482 43,000  Level Miami Center
09:45AM 27.5872 -84.5228 112° Southeast 419 482 43,000  Level Miami Center
09:46AM 27.5417 -84.4028 113° Southeast 419 482 43,000  Level Miami Center
09:47AM 27.4875 -84.2800 116° Southeast 426 490 43,000  Level Miami Center
09:48AM 27.4394 -84.1578 114° Southeast 426 490 43,000  Level Miami Center
09:49AM 27.3933 -84.0381 113° Southeast 421 484 43,000  Level Miami Center
09:50AM 27.3453 -83.9136 113° Southeast 421 484 43,000  Level Miami Center
09:51AM 27.2947 -83.7961 116° Southeast 421 484 43,000  Level Miami Center
09:52AM 27.2483 -83.6767 114° Southeast 421 484 43,000  Level Miami Center
09:53AM 27.2017 -83.5572 114° Southeast 421 484 43,000  Level Miami Center
09:54AM 27.1531 -83.4356 114° Southeast 421 484 43,000  Level Miami Center
09:55AM 27.1042 -83.3161 115° Southeast 421 484 43,000  Level Miami Center
09:56AM 27.0572 -83.1969 114° Southeast 415 478 43,000  Level Miami Center
09:57AM 27.0083 -83.0778 115° Southeast 415 478 43,000  Level Miami Center
09:58AM 26.9611 -82.9614 114° Southeast 415 478 43,000  Level Miami Center
09:59AM 26.9119 -82.8400 114° Southeast 415 478 43,000  Level Miami Center
10:00AM 26.8625 -82.7189 115° Southeast 415 478 43,000  Level Miami Center
10:01AM 26.8131 -82.6000 115° Southeast 415 478 43,000  Level Miami Center
10:02AM 26.7614 -82.4789 116° Southeast 420 483 43,000  Level Miami Center
10:03AM 26.7139 -82.3583 114° Southeast 420 483 43,000  Level Miami Center
10:04AM 26.6639 -82.2397 115° Southeast 420 483 43,000  Level Miami Center
10:05AM 26.6122 -82.1142 115° Southeast 425 489 43,000  Level Miami Center
10:06AM 26.5622 -81.9936 115° Southeast 431 496 43,000  Level Miami Center
10:07AM 26.5103 -81.8708 115° Southeast 431 496 43,000  Level Miami Center
10:08AM 26.4642 -81.7528 114° Southeast 426 490 43,000  Level Miami Center
10:09AM 26.4139 -81.6325 115° Southeast 426 490 43,000  Level Miami Center
10:10AM 26.3614 -81.5097 115° Southeast 426 490 43,000  Level Miami Center
10:11AM 26.3131 -81.3897 114° Southeast 426 490 43,000  Level Miami Center
10:12AM 26.2603 -81.2697 116° Southeast 426 490 43,000  Level Miami Center
10:13AM 26.2117 -81.1522 115° Southeast 426 490 43,000  Level Miami Center
10:14AM 26.1606 -81.0347 116° Southeast 426 490 43,000  Level Miami Center
10:15AM 26.1119 -80.9103 113° Southeast 426 490 43,000  Level Miami Center
10:16AM 26.0628 -80.7953 115° Southeast 426 490 43,000  Level Miami Center
10:17AM 26.0097 -80.6781 117° Southeast 426 490 43,000  Level Miami Center
10:18AM 25.9583 -80.5564 115° Southeast 426 490 43,000  Level Miami Center
10:19AM 25.9069 -80.4369 116° Southeast 426 490 43,000  Level Miami Center
10:20AM 25.8617 -80.3294 115° Southeast 431 496 43,000  Level Miami Center
10:21AM 25.8081 -80.2078 116° Southeast 426 490 43,000  Level Miami Center
10:22AM 25.7522 -80.0908 118° Southeast 426 490 43,000  Level Miami Center
10:23AM 25.6983 -79.9742 117° Southeast 426 490 43,000  Level Miami Center
10:24AM 25.6422 -79.8575 118° Southeast 426 490 43,000  Level Miami Center
10:25AM 25.5903 -79.7411 116° Southeast 426 490 43,000  Level Miami Center
10:26AM 25.5383 -79.6200 115° Southeast 426 490 43,000  Level Miami Center
10:27AM 25.4839 -79.5039 117° Southeast 426 490 43,000  Level Miami Center
10:28AM 25.4275 -79.3853 118° Southeast 432 497 43,000  Level Miami Center
10:29AM 25.3753 -79.2644 116° Southeast 432 497 43,000  Level Miami Center
10:30AM 25.3144 -79.1461 120° Southeast 432 497 43,000  Level Miami Center
10:31AM 25.2619 -79.0256 116° Southeast 432 497 43,000  Level Miami Center
10:32AM 25.2072 -78.9100 118° Southeast 432 497 43,000  Level Miami Center
10:33AM 25.1522 -78.7894 117° Southeast 432 497 43,000  Level Miami Center
10:34AM 25.0975 -78.6739 118° Southeast 432 497 43,000  Level Miami Center
10:35AM 25.0403 -78.5539 118° Southeast 432 497 43,000  Level Miami Center
10:36AM 24.9872 -78.4386 117° Southeast 432 497 43,000  Level Miami Center
10:37AM 24.9319 -78.3208 117° Southeast 432 497 43,000  Level Miami Center
10:38AM 24.8767 -78.2058 118° Southeast 432 497 43,000  Level Miami Center
10:39AM 24.8192 -78.0883 118° Southeast 437 503 43,000  Level Miami Center
10:40AM 24.7636 -77.9689 117° Southeast 437 503 43,000  Level Miami Center
10:41AM 24.7039 -77.8539 120° Southeast 437 503 43,000  Level Miami Center
10:42AM 24.6483 -77.7344 117° Southeast 437 503 43,000  Level Miami Center
10:43AM 24.5883 -77.6175 119° Southeast 437 503 43,000  Level Miami Center
10:44AM 24.5325 -77.4961 117° Southeast 437 503 43,000  Level Miami Center
10:45AM 24.4744 -77.3794 119° Southeast 437 503 43,000  Level Miami Center
10:46AM 24.4161 -77.2606 118° Southeast 437 503 43,000  Level Miami Center
10:47AM 24.3578 -77.1439 119° Southeast 437 503 43,000 -720 Level Miami Center
10:48AM 24.2975 -77.0208 118° Southeast 443 510 41,600 -1,020 Descending Miami Center
10:49AM 24.2392 -76.8997 118° Southeast 443 510 41,000 -300 Descending Miami Center
10:50AM 24.1806 -76.7814 118° Southeast 443 510 41,000  Level Miami Center
10:51AM 24.1136 -76.6539 120° Southeast 435 501 41,000  Level Miami Center
10:52AM 24.0569 -76.5333 117° Southeast 441 507 41,000  Level Miami Center
10:53AM 23.9958 -76.4153 120° Southeast 441 507 41,000  Level Miami Center
10:54AM 23.9369 -76.2972 119° Southeast 441 507 41,000  Level Miami Center
10:55AM 23.8758 -76.1750 119° Southeast 441 507 41,000  Level Miami Center
10:56AM 23.8167 -76.0594 119° Southeast 446 513 41,000  Level Miami Center
10:57AM 23.7575 -75.9372 118° Southeast 441 507 41,000  Level Miami Center
10:58AM 23.7047 -75.8308 118° Southeast 446 513 41,000  Level Miami Center
10:59AM 23.6453 -75.7067 118° Southeast 446 513 41,000  Level Miami Center
11:00AM 23.5814 -75.5825 119° Southeast 458 527 41,000  Level Miami Center
11:01AM 23.5156 -75.4653 121° Southeast 458 527 41,000  Level Miami Center
11:02AM 23.4561 -75.3481 119° Southeast 458 527 41,000  Level Miami Center
11:03AM 23.3919 -75.2267 120° Southeast 453 521 41,000  Level Miami Center
11:04AM 23.3322 -75.1075 119° Southeast 453 521 41,000  Level Miami Center
11:05AM 23.2703 -74.9931 120° Southeast 447 514 41,000  Level Miami Center
11:06AM 23.2103 -74.8764 119° Southeast 447 514 41,000  Level Miami Center
11:07AM 23.1481 -74.7600 120° Southeast 442 509 41,000  Level Miami Center
11:08AM 23.0858 -74.6436 120° Southeast 437 503 41,000  Level Miami Center
11:09AM 23.0211 -74.5161 119° Southeast 442 509 41,000  Level Miami Center
11:10AM 22.9589 -74.4019 121° Southeast 442 509 41,000  Level Miami Center
11:11AM 22.9025 -74.2814 117° Southeast 442 509 41,000  Level Miami Center
11:12AM 22.8378 -74.1700 122° Southeast 442 509 41,000  Level Miami Center
11:13AM 22.7792 -74.0519 118° Southeast 442 509 41,000  Level Miami Center
11:14AM 22.7144 -73.9383 122° Southeast 442 509 41,000  Level Miami Center
11:15AM 22.6578 -73.8228 118° Southeast 437 503 41,000  Level Miami Center
11:16AM 22.5950 -73.7072 120° Southeast 442 509 41,000  Level Miami Center
11:17AM 22.5339 -73.5917 120° Southeast 442 509 41,000  Level Miami Center
11:18AM 22.4750 -73.4764 119° Southeast 442 509 41,000  Level Miami Center
11:19AM 22.4203 -73.3589 117° Southeast 437 503 41,000  Level Miami Center
11:20AM 22.3631 -73.2414 118° Southeast 437 503 41,000  Level Miami Center
11:21AM 22.3019 -73.1264 120° Southeast 437 503 41,000  Level Miami Center
11:22AM 22.2406 -73.0114 120° Southeast 442 509 41,000  Level Miami Center
11:23AM 22.1750 -72.8969 122° Southeast 442 509 41,000  Level Miami Center
11:24AM 22.1114 -72.7800 120° Southeast 442 509 41,000  Level Miami Center
11:25AM 22.0478 -72.6656 121° Southeast 442 509 41,000  Level Miami Center
11:26AM 21.9881 -72.5511 119° Southeast 442 509 41,000  Level Miami Center
11:27AM 21.9222 -72.4369 122° Southeast 442 509 41,000  Level Miami Center
11:28AM 21.8603 -72.3206 120° Southeast 442 509 41,000  Level Miami Center
11:29AM 21.7964 -72.2064 121° Southeast 442 509 41,000  Level Miami Center
11:30AM 21.7325 -72.0925 121° Southeast 442 509 41,000  Level Miami Center
11:31AM 21.6683 -71.9767 121° Southeast 442 509 41,000  Level Miami Center
11:32AM 21.6061 -71.8606 120° Southeast 442 509 41,000  Level Miami Center
11:33AM 21.5417 -71.7447 121° Southeast 442 509 41,000  Level Miami Center
11:34AM 21.4775 -71.6314 121° Southeast 442 509 41,000  Level Miami Center
11:35AM 21.4108 -71.5181 122° Southeast 442 509 41,000  Level Miami Center
11:36AM 21.3464 -71.4006 120° Southeast 442 509 41,000  Level Miami Center
11:37AM 21.2794 -71.2853 122° Southeast 442 509 41,000  Level Miami Center
11:38AM 21.2128 -71.1678 121° Southeast 447 514 41,000  Level Miami Center
11:39AM 21.1519 -71.0503 119° Southeast 452 520 41,000  Level Miami Center
11:40AM 21.0869 -70.9333 121° Southeast 452 520 41,000  Level Miami Center
11:41AM 21.0378 -70.8422 120° Southeast 452 520 41,000  Level Miami Center
11:42AM 20.9614 -70.7056 121° Southeast 452 520 41,000  Level Miami Center
11:43AM 20.8942 -70.5889 122° Southeast 457 526 41,000  Level Miami Center
11:44AM 20.8311 -70.4767 121° Southeast 451 519 41,000  Level Miami Center
11:45AM 20.7661 -70.3622 121° Southeast 451 519 41,000  Level Miami Center
11:46AM 20.7028 -70.2478 121° Southeast 451 519 41,000  Level Miami Center
11:47AM 20.6356 -70.1358 123° Southeast 456 525 41,000  Level Miami Center
11:48AM 20.5719 -70.0197 120° Southeast 456 525 41,000  Level Miami Center
11:49AM 20.5044 -69.9014 121° Southeast 456 525 41,000  Level Miami Center
11:50AM 20.4411 -69.7919 122° Southeast 451 519 41,000  Level Miami Center
11:51AM 20.3753 -69.6758 121° Southeast 451 519 41,000  Level Miami Center
11:52AM 20.3094 -69.5603 121° Southeast 451 519 41,000  Level Miami Center
11:53AM 20.2436 -69.4422 121° Southeast 456 525 41,000  Level Miami Center
11:54AM 20.1758 -69.3314 123° Southeast 456 525 41,000  Level Miami Center
11:55AM 20.1119 -69.2181 121° Southeast 456 525 41,000  Level Miami Center
11:56AM 20.0481 -69.1025 120° Southeast 456 525 41,000  Level Miami Center
11:57AM 19.9778 -68.9897 124° Southeast 456 525 41,000  Level Miami Center
11:58AM 19.9139 -68.8747 121° Southeast 456 525 41,000  Level Miami Center
11:59AM 19.8533 -68.7528 118° Southeast 456 525 41,000  Level Miami Center
12:00PM 19.8156 -68.6253 107° East 456 525 41,000  Level Miami Center
12:01PM 19.7794 -68.4933 106° East 461 531 41,000  Level Miami Center
12:02PM 19.7500 -68.3500 102° East 460 529 41,000  Level San Juan Center
12:03PM 19.7167 -68.2167 105° East 460 529 41,000  Level San Juan Center
12:04PM 19.6667 -68.0833 112° Southeast 480 552 41,000  Level San Juan Center
12:05PM 19.6333 -67.9500 105° East 460 529 41,000  Level San Juan Center
12:06PM 19.6000 -67.8167 105° East 460 529 41,000  Level San Juan Center
12:07PM 19.5667 -67.6833 105° East 460 529 41,000  Level San Juan Center
12:08PM 19.5333 -67.5500 105° East 460 529 41,000  Level San Juan Center
12:09PM 19.5000 -67.4333 107° East 460 529 41,000  Level San Juan Center
12:10PM 19.4667 -67.3000 105° East 460 529 41,000  Level San Juan Center
12:11PM 19.4167 -67.1667 112° Southeast 460 529 41,000  Level San Juan Center
12:12PM 19.3833 -67.0333 105° East 460 529 41,000  Level San Juan Center
12:13PM 19.3500 -66.9000 105° East 460 529 41,000  Level San Juan Center
12:14PM 19.3167 -66.7833 107° East 460 529 41,000  Level San Juan Center
12:15PM 19.2667 -66.6500 112° Southeast 460 529 41,000  Level San Juan Center
12:16PM 19.2333 -66.5167 105° East 460 529 41,000  Level San Juan Center
12:17PM 19.2000 -66.3833 105° East 460 529 41,000  Level San Juan Center
12:18PM 19.1500 -66.2500 112° Southeast 460 529 41,000  Level San Juan Center
12:19PM 19.1167 -66.1167 105° East 460 529 41,000  Level San Juan Center
12:20PM 19.0833 -66.0000 107° East 460 529 41,000  Level San Juan Center
12:21PM 19.0500 -65.8667 105° East 450 518 41,000  Level San Juan Center
12:22PM 19.0000 -65.7333 112° Southeast 460 529 41,000 -780 Level San Juan Center
12:23PM 18.9667 -65.6000 105° East 460 529 39,500 -1,740 Descending San Juan Center
12:24PM 18.9333 -65.4667 105° East 470 541 37,600 -1,920 Descending San Juan Center
12:26PM 18.8833 -65.3333 112° Southeast 470 541 35,700 -1,980 Descending San Juan Center
12:27PM 18.8500 -65.2000 105° East 460 529 33,700 -1,920 Descending San Juan Center
12:28PM 18.8167 -65.0833 107° East 470 541 31,900 -1,380 Descending San Juan Center
12:29PM 18.7667 -64.9500 112° Southeast 470 541 31,000 -1,140 Descending San Juan Center
12:30PM 18.7333 -64.8167 105° East 460 529 29,700 -1,740 Descending San Juan Center
12:31PM 18.7000 -64.6833 105° East 460 529 27,600 -2,100 Descending San Juan Center
12:32PM 18.6500 -64.5500 112° Southeast 450 518 25,500 -1,980 Descending San Juan Center
12:33PM 18.6167 -64.4500 109° East 440 506 23,700 -1,860 Descending San Juan Center
12:34PM 18.5833 -64.3333 107° East 420 483 21,800 -1,860 Descending San Juan Center
12:35PM 18.5500 -64.2167 107° East 390 449 20,000 -1,740 Descending San Juan Center
12:36PM 18.5167 -64.1000 107° East 380 437 18,400 -1,620 Descending San Juan Center
12:37PM 18.4833 -64.0000 109° East 370 426 16,800 -1,620 Descending San Juan Center
12:38PM 18.4500 -63.9167 113° Southeast 360 414 15,200 -1,740 Descending San Juan Center
12:39PM 18.4333 -63.8000 99° East 360 414 13,400 -1,740 Descending San Juan Center
12:40PM 18.4000 -63.7000 109° East 360 414 11,800 -1,620 Descending San Juan Center
12:41PM 18.3667 -63.6000 109° East 340 391 10,200 -1,620 Descending San Juan Center
12:43PM 18.2942 -63.3750 108° East  Level FlightAware Approximate
12:50PM 18.2000 -63.0500 118° Southeast  Level FlightAware Approximate
12:51PM 18.2048 -63.0551 118° Southeast  Level Estimated
12:52PM 18.2000 -63.0500 118° Southeast  Level FlightAware Approximate
12:53PM 18.2048 -63.0551 118° Southeast  Level Estimated
12:54PM 18.2000 -63.0500 118° Southeast  Level FlightAware Approximate
12:55PM 18.2048 -63.0551 118° Southeast  Level Estimated
12:56PM 18.2000 -63.0500 118° Southeast  Level FlightAware Approximate
12:57PM 18.2048 -63.0551 118° Southeast  Level Estimated
12:58PM 18.2000 -63.0500 118° Southeast  Level FlightAware Approximate
12:59PM 18.2048 -63.0551 118° Southeast  Level Estimated
01:00PM 18.2000 -63.0500 118° Southeast  Level FlightAware Approximate
01:01PM 18.2048 -63.0551 118° Southeast  Level Estimated
01:02PM 18.2000 -63.0500 118° Southeast  Level FlightAware Approximate
01:03PM 18.2048 -63.0551 118° Southeast  Level Estimated